sensor_id;sensor_type;location;lat;lon;timestamp;pressure;altitude;pressure_sealevel;temperature;humidity
66887;BME280;67239;51.680;5.976;2023-03-23T00:01:13;100181.59;;;11.38;90.57
66887;BME280;67239;51.680;5.976;2023-03-23T00:03:49;100173.69;;;11.38;90.44
66887;BME280;67239;51.680;5.976;2023-03-23T00:06:18;100165.78;;;11.38;90.68
66887;BME280;67239;51.680;5.976;2023-03-23T00:08:48;100171.06;;;11.38;90.45
66887;BME280;67239;51.680;5.976;2023-03-23T00:11:20;100162.22;;;11.39;90.18
66887;BME280;67239;51.680;5.976;2023-03-23T00:13:49;100151.66;;;11.39;90.45
66887;BME280;67239;51.680;5.976;2023-03-23T00:16:20;100158.72;;;11.39;90.18
66887;BME280;67239;51.680;5.976;2023-03-23T00:18:55;100169.19;;;11.40;90.38
66887;BME280;67239;51.680;5.976;2023-03-23T00:21:24;100173.56;;;11.41;90.13
66887;BME280;67239;51.680;5.976;2023-03-23T00:24:13;100161.09;;;11.45;90.21
66887;BME280;67239;51.680;5.976;2023-03-23T00:26:44;100138.13;;;11.47;90.29
66887;BME280;67239;51.680;5.976;2023-03-23T00:31:41;100156.25;;;11.55;89.52
66887;BME280;67239;51.680;5.976;2023-03-23T00:34:14;100164.94;;;11.57;90.05
66887;BME280;67239;51.680;5.976;2023-03-23T00:36:46;100166.59;;;11.59;89.73
66887;BME280;67239;51.680;5.976;2023-03-23T00:39:13;100170.00;;;11.61;89.45
66887;BME280;67239;51.680;5.976;2023-03-23T00:41:42;100161.13;;;11.64;89.57
66887;BME280;67239;51.680;5.976;2023-03-23T00:44:10;100158.41;;;11.65;89.46
66887;BME280;67239;51.680;5.976;2023-03-23T00:46:48;100156.53;;;11.68;89.32
66887;BME280;67239;51.680;5.976;2023-03-23T00:49:20;100148.53;;;11.69;88.95
66887;BME280;67239;51.680;5.976;2023-03-23T00:51:54;100152.97;;;11.69;88.96
66887;BME280;67239;51.680;5.976;2023-03-23T00:54:23;100151.19;;;11.69;88.85
66887;BME280;67239;51.680;5.976;2023-03-23T00:56:50;100154.63;;;11.71;89.02
66887;BME280;67239;51.680;5.976;2023-03-23T00:59:18;100150.97;;;11.74;89.11
66887;BME280;67239;51.680;5.976;2023-03-23T01:01:44;100153.47;;;11.77;89.07
66887;BME280;67239;51.680;5.976;2023-03-23T01:04:12;100153.41;;;11.78;88.90
66887;BME280;67239;51.680;5.976;2023-03-23T01:06:42;100139.19;;;11.81;88.55
66887;BME280;67239;51.680;5.976;2023-03-23T01:09:14;100126.06;;;11.79;88.39
66887;BME280;67239;51.680;5.976;2023-03-23T01:11:43;100146.28;;;11.80;88.50
66887;BME280;67239;51.680;5.976;2023-03-23T01:14:11;100141.91;;;11.79;88.38
66887;BME280;67239;51.680;5.976;2023-03-23T01:16:38;100129.72;;;11.77;88.51
66887;BME280;67239;51.680;5.976;2023-03-23T01:19:04;100140.19;;;11.78;88.70
66887;BME280;67239;51.680;5.976;2023-03-23T01:21:30;100134.88;;;11.80;88.47
66887;BME280;67239;51.680;5.976;2023-03-23T01:23:57;100140.06;;;11.81;88.43
66887;BME280;67239;51.680;5.976;2023-03-23T01:26:25;100147.97;;;11.81;88.25
66887;BME280;67239;51.680;5.976;2023-03-23T01:28:54;100148.69;;;11.85;88.36
66887;BME280;67239;51.680;5.976;2023-03-23T01:31:24;100128.50;;;11.84;88.33
66887;BME280;67239;51.680;5.976;2023-03-23T01:33:52;100128.41;;;11.86;88.19
66887;BME280;67239;51.680;5.976;2023-03-23T01:36:22;100118.94;;;11.81;88.21
66887;BME280;67239;51.680;5.976;2023-03-23T01:38:50;100068.97;;;11.77;88.47
66887;BME280;67239;51.680;5.976;2023-03-23T01:41:17;100097.38;;;11.72;88.63
66887;BME280;67239;51.680;5.976;2023-03-23T01:44:08;100073.00;;;11.67;88.53
66887;BME280;67239;51.680;5.976;2023-03-23T01:47:00;100065.28;;;11.62;88.81
66887;BME280;67239;51.680;5.976;2023-03-23T01:49:33;100060.06;;;11.60;88.99
66887;BME280;67239;51.680;5.976;2023-03-23T01:52:11;100051.38;;;11.58;88.94
66887;BME280;67239;51.680;5.976;2023-03-23T01:54:46;100056.66;;;11.58;89.11
66887;BME280;67239;51.680;5.976;2023-03-23T01:57:16;100056.72;;;11.57;89.11
66887;BME280;67239;51.680;5.976;2023-03-23T01:59:48;100063.56;;;11.61;88.95
66887;BME280;67239;51.680;5.976;2023-03-23T02:02:22;100064.50;;;11.60;88.99
66887;BME280;67239;51.680;5.976;2023-03-23T02:04:51;100070.63;;;11.60;89.09
66887;BME280;67239;51.680;5.976;2023-03-23T02:07:26;100068.84;;;11.61;89.05
66887;BME280;67239;51.680;5.976;2023-03-23T02:09:55;100070.63;;;11.60;89.00
66887;BME280;67239;51.680;5.976;2023-03-23T02:12:21;100064.41;;;11.61;89.24
66887;BME280;67239;51.680;5.976;2023-03-23T02:14:49;100064.34;;;11.63;88.95
66887;BME280;67239;51.680;5.976;2023-03-23T02:17:33;100059.91;;;11.63;88.99
66887;BME280;67239;51.680;5.976;2023-03-23T02:26:34;100031.66;;;11.65;88.38
66887;BME280;67239;51.680;5.976;2023-03-23T02:34:39;100019.31;;;11.66;88.61
66887;BME280;67239;51.680;5.976;2023-03-23T02:37:12;100013.06;;;11.69;88.32
66887;BME280;67239;51.680;5.976;2023-03-23T02:39:48;100012.13;;;11.70;88.44
66887;BME280;67239;51.680;5.976;2023-03-23T02:42:26;100020.88;;;11.70;88.30
66887;BME280;67239;51.680;5.976;2023-03-23T02:45:02;100021.69;;;11.72;88.22
66887;BME280;67239;51.680;5.976;2023-03-23T02:47:32;100031.31;;;11.73;88.21
66887;BME280;67239;51.680;5.976;2023-03-23T02:50:01;100033.88;;;11.75;87.85
66887;BME280;67239;51.680;5.976;2023-03-23T02:52:32;100032.06;;;11.75;88.01
66887;BME280;67239;51.680;5.976;2023-03-23T02:55:03;100031.22;;;11.75;88.08
66887;BME280;67239;51.680;5.976;2023-03-23T02:57:30;100028.50;;;11.76;88.00
66887;BME280;67239;51.680;5.976;2023-03-23T02:59:59;100011.81;;;11.76;88.00
66887;BME280;67239;51.680;5.976;2023-03-23T03:02:32;100013.38;;;11.80;87.83
66887;BME280;67239;51.680;5.976;2023-03-23T03:05:30;100023.00;;;11.81;87.93
66887;BME280;67239;51.680;5.976;2023-03-23T03:08:37;100034.34;;;11.83;87.89
66887;BME280;67239;51.680;5.976;2023-03-23T03:11:09;100036.75;;;11.88;87.84
66887;BME280;67239;51.680;5.976;2023-03-23T03:17:05;100026.75;;;11.94;87.59
66887;BME280;67239;51.680;5.976;2023-03-23T03:19:43;100025.97;;;11.92;87.60
66887;BME280;67239;51.680;5.976;2023-03-23T03:22:14;100030.19;;;11.96;87.55
66887;BME280;67239;51.680;5.976;2023-03-23T03:24:43;100042.50;;;11.98;87.49
66887;BME280;67239;51.680;5.976;2023-03-23T03:27:17;100027.44;;;12.00;87.29
66887;BME280;67239;51.680;5.976;2023-03-23T03:29:58;100023.09;;;11.99;87.18
66887;BME280;67239;51.680;5.976;2023-03-23T03:32:43;100030.91;;;12.00;87.21
66887;BME280;67239;51.680;5.976;2023-03-23T03:35:15;100024.78;;;12.00;87.26
66887;BME280;67239;51.680;5.976;2023-03-23T03:37:41;100026.47;;;12.01;87.19
66887;BME280;67239;51.680;5.976;2023-03-23T03:40:11;100027.25;;;12.03;87.06
66887;BME280;67239;51.680;5.976;2023-03-23T03:42:41;100028.19;;;12.02;87.26
66887;BME280;67239;51.680;5.976;2023-03-23T03:45:12;100030.78;;;12.03;87.22
66887;BME280;67239;51.680;5.976;2023-03-23T03:47:40;100027.25;;;12.03;87.37
66887;BME280;67239;51.680;5.976;2023-03-23T03:50:07;100030.78;;;12.03;87.31
66887;BME280;67239;51.680;5.976;2023-03-23T03:52:33;100035.19;;;12.03;87.27
66887;BME280;67239;51.680;5.976;2023-03-23T03:54:59;100031.75;;;12.01;87.13
66887;BME280;67239;51.680;5.976;2023-03-23T03:57:26;100034.50;;;11.99;87.29
66887;BME280;67239;51.680;5.976;2023-03-23T04:00:06;100037.13;;;11.99;87.45
66887;BME280;67239;51.680;5.976;2023-03-23T04:02:45;100035.28;;;12.01;87.17
66887;BME280;67239;51.680;5.976;2023-03-23T04:05:39;100033.66;;;11.99;87.08
66887;BME280;67239;51.680;5.976;2023-03-23T04:08:05;100038.06;;;11.98;87.25
66887;BME280;67239;51.680;5.976;2023-03-23T04:10:32;100041.56;;;11.99;87.27
66887;BME280;67239;51.680;5.976;2023-03-23T04:12:59;100031.84;;;11.99;87.29
66887;BME280;67239;51.680;5.976;2023-03-23T04:15:44;100045.06;;;11.99;87.16
66887;BME280;67239;51.680;5.976;2023-03-23T04:18:12;100037.91;;;12.01;86.97
66887;BME280;67239;51.680;5.976;2023-03-23T04:20:41;100047.56;;;12.02;86.76
66887;BME280;67239;51.680;5.976;2023-03-23T04:23:08;100048.47;;;12.01;86.78
66887;BME280;67239;51.680;5.976;2023-03-23T04:25:34;100049.31;;;12.02;86.86
66887;BME280;67239;51.680;5.976;2023-03-23T04:28:02;100044.03;;;12.02;86.68
66887;BME280;67239;51.680;5.976;2023-03-23T04:30:34;100045.84;;;12.01;86.21
66887;BME280;67239;51.680;5.976;2023-03-23T04:33:06;100047.47;;;12.04;86.31
66887;BME280;67239;51.680;5.976;2023-03-23T04:35:32;100052.75;;;12.04;85.90
66887;BME280;67239;51.680;5.976;2023-03-23T04:38:13;100048.34;;;12.04;85.53
66887;BME280;67239;51.680;5.976;2023-03-23T04:40:43;100064.19;;;12.04;85.42
66887;BME280;67239;51.680;5.976;2023-03-23T04:43:23;100061.59;;;12.03;85.60
66887;BME280;67239;51.680;5.976;2023-03-23T04:45:56;100060.75;;;12.02;85.35
66887;BME280;67239;51.680;5.976;2023-03-23T04:48:29;100063.31;;;12.04;85.06
66887;BME280;67239;51.680;5.976;2023-03-23T04:51:18;100070.22;;;12.06;84.31
66887;BME280;67239;51.680;5.976;2023-03-23T04:53:47;100069.31;;;12.07;83.86
66887;BME280;67239;51.680;5.976;2023-03-23T04:56:13;100076.16;;;12.11;83.26
66887;BME280;67239;51.680;5.976;2023-03-23T04:58:43;100079.66;;;12.12;83.15
66887;BME280;67239;51.680;5.976;2023-03-23T05:01:33;100075.28;;;12.11;83.22
66887;BME280;67239;51.680;5.976;2023-03-23T05:04:13;100072.75;;;12.09;83.37
66887;BME280;67239;51.680;5.976;2023-03-23T05:06:44;100068.31;;;12.10;83.17
66887;BME280;67239;51.680;5.976;2023-03-23T05:09:17;100066.53;;;12.10;82.87
66887;BME280;67239;51.680;5.976;2023-03-23T05:11:44;100071.81;;;12.10;82.72
66887;BME280;67239;51.680;5.976;2023-03-23T05:14:10;100071.66;;;12.14;81.98
66887;BME280;67239;51.680;5.976;2023-03-23T05:16:37;100069.94;;;12.13;82.53
66887;BME280;67239;51.680;5.976;2023-03-23T05:19:04;100073.44;;;12.13;82.09
66887;BME280;67239;51.680;5.976;2023-03-23T05:21:32;100078.72;;;12.13;82.29
66887;BME280;67239;51.680;5.976;2023-03-23T05:23:58;100077.94;;;12.11;82.30
66887;BME280;67239;51.680;5.976;2023-03-23T05:26:27;100085.84;;;12.11;82.39
66887;BME280;67239;51.680;5.976;2023-03-23T05:29:03;100088.50;;;12.11;82.31
66887;BME280;67239;51.680;5.976;2023-03-23T05:31:41;100075.38;;;12.09;81.99
66887;BME280;67239;51.680;5.976;2023-03-23T05:34:07;100083.31;;;12.09;81.82
66887;BME280;67239;51.680;5.976;2023-03-23T05:36:39;100084.22;;;12.08;81.84
66887;BME280;67239;51.680;5.976;2023-03-23T05:39:12;100087.75;;;12.09;81.98
66887;BME280;67239;51.680;5.976;2023-03-23T05:41:59;100085.94;;;12.09;82.08
66887;BME280;67239;51.680;5.976;2023-03-23T05:44:33;100087.78;;;12.07;82.31
66887;BME280;67239;51.680;5.976;2023-03-23T05:47:00;100089.50;;;12.08;82.59
66887;BME280;67239;51.680;5.976;2023-03-23T05:49:26;100091.94;;;12.13;82.56
66887;BME280;67239;51.680;5.976;2023-03-23T05:51:53;100095.28;;;12.17;82.63
66887;BME280;67239;51.680;5.976;2023-03-23T05:54:20;100092.25;;;12.24;82.85
66887;BME280;67239;51.680;5.976;2023-03-23T05:56:48;100091.03;;;12.32;82.76
66887;BME280;67239;51.680;5.976;2023-03-23T05:59:35;100083.72;;;12.37;82.63
66887;BME280;67239;51.680;5.976;2023-03-23T06:02:03;100084.19;;;12.45;82.08
66887;BME280;67239;51.680;5.976;2023-03-23T06:04:29;100094.50;;;12.51;81.94
66887;BME280;67239;51.680;5.976;2023-03-23T06:07:06;100089.03;;;12.54;81.45
66887;BME280;67239;51.680;5.976;2023-03-23T06:09:39;100100.38;;;12.56;81.16
66887;BME280;67239;51.680;5.976;2023-03-23T06:12:39;100086.16;;;12.59;80.88
66887;BME280;67239;51.680;5.976;2023-03-23T06:15:44;100081.97;;;12.55;80.90
66887;BME280;67239;51.680;5.976;2023-03-23T06:18:13;100102.63;;;12.47;80.92
66887;BME280;67239;51.680;5.976;2023-03-23T06:20:58;100113.41;;;12.42;80.97
66887;BME280;67239;51.680;5.976;2023-03-23T06:23:45;100114.44;;;12.39;81.01
66887;BME280;67239;51.680;5.976;2023-03-23T06:26:15;100108.53;;;12.34;81.45
66887;BME280;67239;51.680;5.976;2023-03-23T06:28:46;100109.38;;;12.35;81.76
66887;BME280;67239;51.680;5.976;2023-03-23T06:31:13;100114.81;;;12.32;81.74
66887;BME280;67239;51.680;5.976;2023-03-23T06:33:41;100123.59;;;12.32;81.94
66887;BME280;67239;51.680;5.976;2023-03-23T06:36:25;100122.72;;;12.32;81.96
66887;BME280;67239;51.680;5.976;2023-03-23T06:39:24;100133.41;;;12.30;81.77
66887;BME280;67239;51.680;5.976;2023-03-23T06:42:03;100147.53;;;12.29;82.29
66887;BME280;67239;51.680;5.976;2023-03-23T06:44:34;100136.91;;;12.31;82.29
66887;BME280;67239;51.680;5.976;2023-03-23T06:47:00;100156.34;;;12.30;82.20
66887;BME280;67239;51.680;5.976;2023-03-23T06:49:33;100151.09;;;12.28;82.11
66887;BME280;67239;51.680;5.976;2023-03-23T06:52:09;100144.09;;;12.27;81.93
66887;BME280;67239;51.680;5.976;2023-03-23T06:54:35;100151.97;;;12.29;81.77
66887;BME280;67239;51.680;5.976;2023-03-23T06:57:02;100149.38;;;12.27;81.76
66887;BME280;67239;51.680;5.976;2023-03-23T06:59:28;100155.59;;;12.26;81.95
66887;BME280;67239;51.680;5.976;2023-03-23T07:01:54;100157.50;;;12.24;82.03
66887;BME280;67239;51.680;5.976;2023-03-23T07:04:20;100149.56;;;12.24;82.16
66887;BME280;67239;51.680;5.976;2023-03-23T07:06:55;100153.91;;;12.25;82.16
66887;BME280;67239;51.680;5.976;2023-03-23T07:09:22;100144.09;;;12.27;82.17
66887;BME280;67239;51.680;5.976;2023-03-23T07:11:49;100151.88;;;12.30;82.07
66887;BME280;67239;51.680;5.976;2023-03-23T07:14:31;100152.69;;;12.32;82.26
66887;BME280;67239;51.680;5.976;2023-03-23T07:16:57;100157.88;;;12.34;82.16
66887;BME280;67239;51.680;5.976;2023-03-23T07:19:24;100152.53;;;12.35;82.15
66887;BME280;67239;51.680;5.976;2023-03-23T07:21:50;100151.44;;;12.39;82.16
66887;BME280;67239;51.680;5.976;2023-03-23T07:24:19;100155.66;;;12.43;82.10
66887;BME280;67239;51.680;5.976;2023-03-23T07:27:05;100160.03;;;12.45;81.91
66887;BME280;67239;51.680;5.976;2023-03-23T07:29:32;100168.78;;;12.45;81.80
66887;BME280;67239;51.680;5.976;2023-03-23T07:32:11;100172.44;;;12.42;81.74
66887;BME280;67239;51.680;5.976;2023-03-23T07:34:38;100169.91;;;12.41;81.35
66887;BME280;67239;51.680;5.976;2023-03-23T07:37:18;100172.69;;;12.38;81.55
66887;BME280;67239;51.680;5.976;2023-03-23T07:39:47;100179.91;;;12.34;81.46
66887;BME280;67239;51.680;5.976;2023-03-23T07:42:14;100183.47;;;12.33;81.32
66887;BME280;67239;51.680;5.976;2023-03-23T07:44:46;100189.97;;;12.26;81.73
66887;BME280;67239;51.680;5.976;2023-03-23T07:47:13;100179.69;;;12.20;82.14
66887;BME280;67239;51.680;5.976;2023-03-23T07:49:40;100184.41;;;12.13;82.60
66887;BME280;67239;51.680;5.976;2023-03-23T07:52:15;100192.63;;;12.07;82.78
66887;BME280;67239;51.680;5.976;2023-03-23T07:54:41;100181.41;;;12.02;83.44
66887;BME280;67239;51.680;5.976;2023-03-23T07:57:16;100184.13;;;12.00;83.42
66887;BME280;67239;51.680;5.976;2023-03-23T07:59:48;100187.69;;;11.99;84.25
66887;BME280;67239;51.680;5.976;2023-03-23T08:02:14;100185.13;;;11.98;84.55
66887;BME280;67239;51.680;5.976;2023-03-23T08:04:51;100184.31;;;11.95;84.30
66887;BME280;67239;51.680;5.976;2023-03-23T08:07:42;100205.66;;;11.91;83.48
66887;BME280;67239;51.680;5.976;2023-03-23T08:10:36;100197.06;;;11.86;83.87
66887;BME280;67239;51.680;5.976;2023-03-23T08:13:28;100199.88;;;11.83;83.49
66887;BME280;67239;51.680;5.976;2023-03-23T08:16:10;100213.34;;;11.76;81.93
66887;BME280;67239;51.680;5.976;2023-03-23T08:19:00;100213.97;;;11.62;82.23
66887;BME280;67239;51.680;5.976;2023-03-23T08:21:46;100213.78;;;11.46;82.49
66887;BME280;67239;51.680;5.976;2023-03-23T08:24:36;100216.19;;;11.32;82.04
66887;BME280;67239;51.680;5.976;2023-03-23T08:27:14;100222.84;;;11.20;82.33
66887;BME280;67239;51.680;5.976;2023-03-23T08:29:52;100221.31;;;11.14;82.65
66887;BME280;67239;51.680;5.976;2023-03-23T08:32:43;100235.66;;;11.09;82.93
66887;BME280;67239;51.680;5.976;2023-03-23T08:35:26;100232.13;;;11.08;83.01
66887;BME280;67239;51.680;5.976;2023-03-23T08:37:59;100238.22;;;11.10;83.02
66887;BME280;67239;51.680;5.976;2023-03-23T08:40:57;100252.97;;;11.14;83.29
66887;BME280;67239;51.680;5.976;2023-03-23T08:43:43;100240.53;;;11.18;83.17
66887;BME280;67239;51.680;5.976;2023-03-23T08:46:15;100242.97;;;11.23;82.96
66887;BME280;67239;51.680;5.976;2023-03-23T08:48:59;100245.53;;;11.24;83.15
66887;BME280;67239;51.680;5.976;2023-03-23T08:51:44;100250.53;;;11.30;83.35
66887;BME280;67239;51.680;5.976;2023-03-23T08:54:16;100251.22;;;11.36;83.25
66887;BME280;67239;51.680;5.976;2023-03-23T08:56:43;100251.03;;;11.40;83.50
66887;BME280;67239;51.680;5.976;2023-03-23T08:59:09;100258.53;;;11.49;83.28
66887;BME280;67239;51.680;5.976;2023-03-23T09:01:42;100262.22;;;11.66;83.05
66887;BME280;67239;51.680;5.976;2023-03-23T09:04:40;100250.06;;;11.83;82.88
66887;BME280;67239;51.680;5.976;2023-03-23T09:07:23;100252.91;;;11.97;82.56
66887;BME280;67239;51.680;5.976;2023-03-23T09:09:49;100255.03;;;12.09;82.65
66887;BME280;67239;51.680;5.976;2023-03-23T09:12:15;100254.59;;;12.19;81.64
66887;BME280;67239;51.680;5.976;2023-03-23T09:14:42;100257.03;;;12.23;81.40
66887;BME280;67239;51.680;5.976;2023-03-23T09:17:08;100262.97;;;12.29;80.30
66887;BME280;67239;51.680;5.976;2023-03-23T09:19:34;100265.41;;;12.33;80.23
66887;BME280;67239;51.680;5.976;2023-03-23T09:22:01;100266.19;;;12.35;79.89
66887;BME280;67239;51.680;5.976;2023-03-23T09:24:30;100260.81;;;12.37;79.70
66887;BME280;67239;51.680;5.976;2023-03-23T09:26:56;100240.25;;;12.43;79.35
66887;BME280;67239;51.680;5.976;2023-03-23T09:29:25;100237.50;;;12.64;79.42
66887;BME280;67239;51.680;5.976;2023-03-23T09:31:55;100251.94;;;12.94;78.74
66887;BME280;67239;51.680;5.976;2023-03-23T09:34:22;100244.41;;;13.21;78.05
66887;BME280;67239;51.680;5.976;2023-03-23T09:36:48;100245.50;;;13.34;77.02
66887;BME280;67239;51.680;5.976;2023-03-23T09:39:15;100236.22;;;13.43;75.60
66887;BME280;67239;51.680;5.976;2023-03-23T09:42:02;100244.97;;;13.45;75.64
66887;BME280;67239;51.680;5.976;2023-03-23T09:50:15;100266.59;;;13.18;74.28
66887;BME280;67239;51.680;5.976;2023-03-23T09:53:00;100271.28;;;13.31;73.07
66887;BME280;67239;51.680;5.976;2023-03-23T09:55:35;100275.25;;;13.40;73.82
66887;BME280;67239;51.680;5.976;2023-03-23T09:58:33;100285.59;;;13.44;72.19
66887;BME280;67239;51.680;5.976;2023-03-23T10:01:21;100277.31;;;13.33;72.84
66887;BME280;67239;51.680;5.976;2023-03-23T10:04:01;100288.88;;;13.32;73.16
66887;BME280;67239;51.680;5.976;2023-03-23T10:06:32;100292.59;;;13.28;73.28
66887;BME280;67239;51.680;5.976;2023-03-23T10:09:01;100282.69;;;13.31;73.42
66887;BME280;67239;51.680;5.976;2023-03-23T10:17:17;100296.50;;;13.38;73.93
66887;BME280;67239;51.680;5.976;2023-03-23T10:25:54;100289.03;;;13.46;73.84
66887;BME280;67239;51.680;5.976;2023-03-23T10:28:39;100301.34;;;13.47;74.41
66887;BME280;67239;51.680;5.976;2023-03-23T10:31:34;100313.31;;;13.55;74.96
66887;BME280;67239;51.680;5.976;2023-03-23T10:37:21;100311.00;;;13.66;73.83
66887;BME280;67239;51.680;5.976;2023-03-23T10:39:57;100307.16;;;13.72;74.81
66887;BME280;67239;51.680;5.976;2023-03-23T10:42:27;100302.50;;;13.77;74.36
66887;BME280;67239;51.680;5.976;2023-03-23T10:44:58;100299.84;;;13.77;74.74
66887;BME280;67239;51.680;5.976;2023-03-23T10:47:26;100303.50;;;13.92;74.35
66887;BME280;67239;51.680;5.976;2023-03-23T10:50:03;100314.53;;;14.00;73.99
66887;BME280;67239;51.680;5.976;2023-03-23T10:52:35;100312.41;;;14.07;73.16
66887;BME280;67239;51.680;5.976;2023-03-23T10:55:12;100313.13;;;14.26;72.24
66887;BME280;67239;51.680;5.976;2023-03-23T10:57:45;100319.41;;;14.41;71.88
66887;BME280;67239;51.680;5.976;2023-03-23T11:00:25;100309.31;;;14.64;71.41
66887;BME280;67239;51.680;5.976;2023-03-23T11:05:56;100312.41;;;15.04;70.46
66887;BME280;67239;51.680;5.976;2023-03-23T11:08:30;100315.03;;;15.20;69.86
66887;BME280;67239;51.680;5.976;2023-03-23T11:11:25;100311.34;;;15.23;68.51
66887;BME280;67239;51.680;5.976;2023-03-23T11:14:00;100300.28;;;15.31;68.90
66887;BME280;67239;51.680;5.976;2023-03-23T11:16:34;100303.53;;;15.50;68.11
66887;BME280;67239;51.680;5.976;2023-03-23T11:19:27;100305.44;;;15.48;68.05
66887;BME280;67239;51.680;5.976;2023-03-23T11:22:48;100304.22;;;15.54;67.54
66887;BME280;67239;51.680;5.976;2023-03-23T11:25:09;100303.34;;;15.53;65.90
66887;BME280;67239;51.680;5.976;2023-03-23T11:27:39;100303.22;;;15.41;66.88
66887;BME280;67239;51.680;5.976;2023-03-23T11:30:22;100309.19;;;15.44;67.45
66887;BME280;67239;51.680;5.976;2023-03-23T11:32:54;100310.63;;;15.35;67.26
66887;BME280;67239;51.680;5.976;2023-03-23T11:35:27;100310.16;;;15.43;67.32
66887;BME280;67239;51.680;5.976;2023-03-23T11:37:56;100300.66;;;15.39;67.45
66887;BME280;67239;51.680;5.976;2023-03-23T11:40:26;100314.00;;;15.37;67.36
66887;BME280;67239;51.680;5.976;2023-03-23T11:43:09;100320.50;;;15.48;68.08
66887;BME280;67239;51.680;5.976;2023-03-23T11:45:40;100311.41;;;15.52;67.34
66887;BME280;67239;51.680;5.976;2023-03-23T11:51:38;100325.59;;;15.67;66.75
66887;BME280;67239;51.680;5.976;2023-03-23T11:54:32;100313.16;;;15.82;66.35
66887;BME280;67239;51.680;5.976;2023-03-23T11:57:10;100316.44;;;16.02;66.33
66887;BME280;67239;51.680;5.976;2023-03-23T11:59:39;100313.88;;;16.14;66.51
66887;BME280;67239;51.680;5.976;2023-03-23T12:04:48;100322.31;;;16.21;62.49
66887;BME280;67239;51.680;5.976;2023-03-23T12:07:41;100315.09;;;16.09;63.33
66887;BME280;67239;51.680;5.976;2023-03-23T12:21:55;100291.53;;;16.46;64.22
66887;BME280;67239;51.680;5.976;2023-03-23T12:27:20;100278.56;;;16.96;64.65
66887;BME280;67239;51.680;5.976;2023-03-23T12:35:59;100304.94;;;17.54;62.49
66887;BME280;67239;51.680;5.976;2023-03-23T12:41:54;100294.59;;;17.62;59.66
66887;BME280;67239;51.680;5.976;2023-03-23T12:45:12;100280.19;;;17.52;60.84
66887;BME280;67239;51.680;5.976;2023-03-23T12:48:08;100275.28;;;17.46;60.92
66887;BME280;67239;51.680;5.976;2023-03-23T12:50:47;100274.63;;;17.55;60.22
66887;BME280;67239;51.680;5.976;2023-03-23T12:53:23;100264.84;;;17.56;58.76
66887;BME280;67239;51.680;5.976;2023-03-23T12:56:16;100252.06;;;17.74;60.11
66887;BME280;67239;51.680;5.976;2023-03-23T12:59:10;100249.81;;;17.93;58.63
66887;BME280;67239;51.680;5.976;2023-03-23T13:01:47;100246.06;;;17.96;58.15
66887;BME280;67239;51.680;5.976;2023-03-23T13:04:28;100236.34;;;17.95;57.40
66887;BME280;67239;51.680;5.976;2023-03-23T13:07:02;100229.44;;;17.92;58.10
66887;BME280;67239;51.680;5.976;2023-03-23T13:09:46;100235.69;;;18.17;58.35
66887;BME280;67239;51.680;5.976;2023-03-23T13:12:16;100239.78;;;18.47;58.60
66887;BME280;67239;51.680;5.976;2023-03-23T13:15:03;100249.63;;;18.71;57.60
66887;BME280;67239;51.680;5.976;2023-03-23T13:18:17;100273.78;;;18.69;57.36
66887;BME280;67239;51.680;5.976;2023-03-23T13:21:16;100265.91;;;18.79;57.18
66887;BME280;67239;51.680;5.976;2023-03-23T13:23:55;100272.06;;;18.92;56.57
66887;BME280;67239;51.680;5.976;2023-03-23T13:26:25;100264.75;;;18.83;55.33
66887;BME280;67239;51.680;5.976;2023-03-23T13:29:08;100264.75;;;18.83;55.42
66887;BME280;67239;51.680;5.976;2023-03-23T13:31:40;100266.19;;;18.87;56.34
66887;BME280;67239;51.680;5.976;2023-03-23T13:34:25;100266.31;;;18.86;54.66
66887;BME280;67239;51.680;5.976;2023-03-23T13:37:02;100268.78;;;18.65;55.62
66887;BME280;67239;51.680;5.976;2023-03-23T13:39:32;100277.47;;;18.42;56.60
66887;BME280;67239;51.680;5.976;2023-03-23T13:42:19;100260.09;;;18.37;56.58
66887;BME280;67239;51.680;5.976;2023-03-23T13:52:35;100249.13;;;18.66;56.62
66887;BME280;67239;51.680;5.976;2023-03-23T13:55:18;100236.50;;;18.92;55.94
66887;BME280;67239;51.680;5.976;2023-03-23T14:03:16;100229.75;;;18.75;52.62
66887;BME280;67239;51.680;5.976;2023-03-23T14:06:03;100239.16;;;18.43;53.46
66887;BME280;67239;51.680;5.976;2023-03-23T14:08:48;100243.75;;;18.04;53.90
66887;BME280;67239;51.680;5.976;2023-03-23T14:11:26;100235.84;;;17.77;54.11
66887;BME280;67239;51.680;5.976;2023-03-23T14:14:05;100236.69;;;17.51;54.47
66887;BME280;67239;51.680;5.976;2023-03-23T14:16:39;100252.66;;;17.26;55.59
66887;BME280;67239;51.680;5.976;2023-03-23T14:19:24;100293.88;;;16.92;57.38
66887;BME280;67239;51.680;5.976;2023-03-23T14:21:56;100315.72;;;16.56;59.17
66887;BME280;67239;51.680;5.976;2023-03-23T14:24:29;100317.03;;;16.07;62.30
66887;BME280;67239;51.680;5.976;2023-03-23T14:27:14;100314.56;;;15.59;64.67
66887;BME280;67239;51.680;5.976;2023-03-23T14:29:42;100311.06;;;15.28;65.69
66887;BME280;67239;51.680;5.976;2023-03-23T14:32:14;100306.91;;;15.07;66.90
66887;BME280;67239;51.680;5.976;2023-03-23T14:34:46;100299.41;;;15.00;68.11
66887;BME280;67239;51.680;5.976;2023-03-23T14:37:14;100292.19;;;15.02;68.59
66887;BME280;67239;51.680;5.976;2023-03-23T14:39:47;100292.69;;;15.09;69.32
66887;BME280;67239;51.680;5.976;2023-03-23T14:42:37;100281.78;;;15.13;69.54
66887;BME280;67239;51.680;5.976;2023-03-23T14:45:05;100272.44;;;15.22;69.34
66887;BME280;67239;51.680;5.976;2023-03-23T14:47:38;100256.47;;;15.38;69.74
66887;BME280;67239;51.680;5.976;2023-03-23T14:53:30;100236.47;;;15.61;70.27
66887;BME280;67239;51.680;5.976;2023-03-23T14:56:06;100229.28;;;15.63;71.08
66887;BME280;67239;51.680;5.976;2023-03-23T14:58:36;100221.97;;;15.67;71.00